Okarche, Oklahoma
Current Conditions -  °F | °C
As of 7:35 AM on Sunday 23 Nov 2014 (Local Time) from KRQO Reporting Station
Overcast Overcast  
Wind Chill: 52°   Ceiling: 900
Heat Index: 52°   Visibility: 10mi
Dew Point: 52°   Wind: 16mph
Humidity: 100%   Direction: 190°S
Pressure: 29.45"   Gusts: 22mph
Location:  35.73°N, 97.98°W
Report Text: KRQO 231335Z AUTO 19014G19KT 10SM BKN009 OVC013 11/11 A2945 RMK AO2
Loading
Personal Weather Stations






























Interactive Weather Map New forecast layout! Learn more

10-Day Weather Forecast

Advertisements
Track Severe Weather on mobile